createdAt,value
2022-08-18T00:01:39.896Z,0
2022-08-18T00:07:04.810Z,0
2022-08-18T00:12:30.423Z,0
2022-08-18T00:17:52.861Z,0
2022-08-18T00:23:18.381Z,0
2022-08-18T00:28:40.655Z,0
2022-08-18T00:34:03.343Z,0
2022-08-18T00:39:25.680Z,0
2022-08-18T00:44:48.212Z,0
2022-08-18T00:55:43.794Z,0
2022-08-18T01:01:17.561Z,0
2022-08-18T01:06:43.583Z,0
2022-08-18T01:12:20.778Z,0
2022-08-18T01:18:10.119Z,0
2022-08-18T01:23:33.061Z,0
2022-08-18T01:28:55.885Z,0
2022-08-18T01:34:21.556Z,0
2022-08-18T01:41:00.534Z,0
2022-08-18T01:47:00.138Z,0
2022-08-18T01:52:22.665Z,0
2022-08-18T01:57:45.767Z,0
2022-08-18T02:03:12.146Z,0
2022-08-18T02:08:38.331Z,0
2022-08-18T02:14:16.001Z,0
2022-08-18T02:19:38.526Z,0
2022-08-18T02:25:01.294Z,0
2022-08-18T02:30:23.860Z,0
2022-08-18T02:35:46.514Z,0
2022-08-18T02:41:09.504Z,0
2022-08-18T02:46:32.248Z,0
2022-08-18T02:51:57.329Z,0
2022-08-18T02:57:20.055Z,0
2022-08-18T03:02:42.624Z,0
2022-08-18T03:08:06.815Z,0
2022-08-18T03:13:29.499Z,0
2022-08-18T03:18:51.968Z,0
2022-08-18T03:24:23.662Z,0
2022-08-18T03:29:46.357Z,0
2022-08-18T03:35:08.699Z,0
2022-08-18T03:40:31.123Z,0
2022-08-18T03:45:53.595Z,0
2022-08-18T03:51:16.070Z,0
2022-08-18T03:56:38.616Z,0
2022-08-18T04:02:11.435Z,0
2022-08-18T04:07:34.095Z,0
2022-08-18T04:12:56.692Z,0
2022-08-18T04:18:21.895Z,0
2022-08-18T04:23:44.529Z,0
2022-08-18T04:29:07.032Z,0
2022-08-18T04:34:29.543Z,0
2022-08-18T04:39:52.302Z,0
2022-08-18T04:46:00.800Z,0.1
2022-08-18T04:52:21.719Z,0.1
2022-08-18T04:58:13.704Z,0.1
2022-08-18T05:03:35.916Z,0.1
2022-08-18T05:09:13.161Z,0.1
2022-08-18T05:14:46.406Z,0.1
2022-08-18T05:20:09.297Z,0.1
2022-08-18T05:25:32.022Z,0.1
2022-08-18T05:30:54.355Z,0.1
2022-08-18T05:36:23.281Z,0.1
2022-08-18T05:46:50.999Z,0.2
2022-08-18T05:52:13.236Z,0.2
2022-08-18T05:57:35.811Z,0.2
2022-08-18T06:08:51.796Z,0.2
2022-08-18T06:14:14.135Z,0.2
2022-08-18T06:19:36.687Z,0.2
2022-08-18T06:25:05.450Z,0.2
2022-08-18T06:30:30.181Z,0.2
2022-08-18T06:35:52.489Z,0.3
2022-08-18T06:41:37.705Z,0.2
2022-08-18T06:47:09.190Z,0.3
2022-08-18T06:52:31.953Z,0.4
2022-08-18T06:58:08.228Z,0.6
2022-08-18T07:03:30.988Z,0.5
2022-08-18T07:08:53.500Z,0.5
2022-08-18T07:14:17.123Z,0.5
2022-08-18T07:19:39.904Z,0.5
2022-08-18T07:25:05.249Z,0.5
2022-08-18T07:30:28.830Z,0.4
2022-08-18T07:35:51.304Z,0.4
2022-08-18T07:41:23.840Z,0.4
2022-08-18T07:46:46.677Z,0.4
2022-08-18T07:52:13.100Z,0.5
2022-08-18T07:58:10.259Z,0.5
2022-08-18T08:08:55.350Z,0.4
2022-08-18T08:14:17.484Z,0.4
2022-08-18T08:19:59.854Z,0.5
2022-08-18T08:25:47.536Z,0.6
2022-08-18T08:37:00.758Z,0.5
2022-08-18T08:42:29.892Z,0.6
2022-08-18T08:48:09.115Z,0.5
2022-08-18T08:53:37.145Z,0.7
2022-08-18T08:58:59.563Z,0.6
2022-08-18T09:04:23.054Z,0.8
2022-08-18T09:09:46.192Z,0.8
2022-08-18T09:15:09.074Z,1.2
2022-08-18T09:20:31.861Z,1.3
2022-08-18T09:25:55.283Z,1.3
2022-08-18T09:31:19.474Z,1.3
2022-08-18T09:36:42.507Z,1.4
2022-08-18T09:42:10.817Z,1.7
2022-08-18T09:47:34.863Z,1.5
2022-08-18T09:52:57.936Z,1.5
2022-08-18T09:58:20.444Z,1.6
2022-08-18T10:03:45.883Z,1.7
2022-08-18T10:09:14.799Z,1.5
2022-08-18T10:15:03.390Z,1.5
2022-08-18T10:20:28.909Z,2.1
2022-08-18T10:25:51.991Z,2.2
2022-08-18T10:31:15.040Z,5
2022-08-18T10:36:40.278Z,4.3
2022-08-18T10:42:05.637Z,2.9
2022-08-18T10:47:33.277Z,2.6
2022-08-18T10:53:16.864Z,2.7
2022-08-18T13:10:21.876Z,7.4
2022-08-18T13:16:16.259Z,6
2022-08-18T13:22:20.588Z,3
2022-08-18T13:33:34.261Z,1.8
2022-08-18T13:39:31.510Z,2.3
2022-08-18T13:44:57.567Z,2.3
2022-08-18T13:50:52.466Z,1.8
2022-08-18T13:56:17.956Z,1.8
2022-08-18T14:01:45.436Z,2
2022-08-18T14:07:18.781Z,2.1
2022-08-18T14:12:51.665Z,4.8
2022-08-18T14:18:16.179Z,5.2
2022-08-18T14:23:39.911Z,5.6
2022-08-18T14:29:42.940Z,5.1
2022-08-18T14:35:13.636Z,4.7
2022-08-18T14:41:32.850Z,5.2
2022-08-18T14:46:55.536Z,4.4
2022-08-18T14:52:29.238Z,1.8
2022-08-18T14:57:53.716Z,1.8
2022-08-18T15:03:28.460Z,1.8
2022-08-18T15:08:54.412Z,1.8
2022-08-18T15:19:58.442Z,1.6
2022-08-18T15:25:24.531Z,1.6
2022-08-18T15:30:47.014Z,1.5
2022-08-18T15:36:47.212Z,1.3
2022-08-18T15:42:10.001Z,1.2
2022-08-18T15:47:33.168Z,1.1
2022-08-18T15:53:05.080Z,1.2
2022-08-18T15:58:31.520Z,1.2
2022-08-18T16:03:57.504Z,1.2
2022-08-18T16:14:40.025Z,1.1
2022-08-18T16:20:02.605Z,1
2022-08-18T16:25:25.038Z,1
2022-08-18T16:36:09.901Z,0.9
2022-08-18T16:41:32.609Z,0.8
2022-08-18T16:46:58.595Z,0.8
2022-08-18T16:52:20.857Z,0.7
2022-08-18T16:57:53.888Z,0.7
2022-08-18T17:03:18.801Z,0.6
2022-08-18T17:08:44.250Z,0.6
2022-08-18T17:14:06.783Z,0.6
2022-08-18T17:19:29.147Z,0.5
2022-08-18T17:24:51.589Z,0.5
2022-08-18T17:30:14.082Z,0.4
2022-08-18T17:35:36.408Z,0.4
2022-08-18T17:40:58.697Z,0.4
2022-08-18T17:46:21.191Z,0.3
2022-08-18T17:51:47.056Z,0.3
2022-08-18T17:57:17.763Z,0.3
2022-08-18T18:02:43.194Z,0.3
2022-08-18T18:08:06.079Z,0.3
2022-08-18T18:13:31.499Z,0.2
2022-08-18T18:18:54.369Z,0.2
2022-08-18T18:29:52.826Z,0.1
2022-08-18T18:35:15.587Z,0.1
2022-08-18T18:40:38.089Z,0.1
2022-08-18T18:46:05.599Z,0.1
2022-08-18T18:51:45.446Z,0
2022-08-18T18:57:12.696Z,0
2022-08-18T19:02:40.277Z,0
2022-08-18T19:08:02.805Z,0
2022-08-18T19:13:33.465Z,0
2022-08-18T19:19:35.291Z,0
2022-08-18T19:25:02.118Z,0
2022-08-18T19:30:41.508Z,0
2022-08-18T19:36:04.517Z,0
2022-08-18T19:41:30.754Z,0
2022-08-18T19:47:23.304Z,0
2022-08-18T19:52:56.596Z,0
2022-08-18T19:58:20.097Z,0
2022-08-18T20:03:42.892Z,0
2022-08-18T20:09:05.852Z,0
2022-08-18T20:14:34.673Z,0
2022-08-18T20:20:00.006Z,0
2022-08-18T20:25:22.498Z,0
2022-08-18T20:30:56.937Z,0
2022-08-18T20:36:19.667Z,0
2022-08-18T20:41:41.871Z,0
2022-08-18T20:47:04.786Z,0
2022-08-18T20:52:29.213Z,0
2022-08-18T20:58:00.262Z,0
2022-08-18T21:03:22.659Z,0
2022-08-18T21:08:45.120Z,0
2022-08-18T21:25:05.264Z,0
2022-08-18T21:30:28.206Z,0
2022-08-18T21:35:51.031Z,0
2022-08-18T21:41:13.851Z,0
2022-08-18T21:46:36.356Z,0
2022-08-18T21:52:02.279Z,0
2022-08-18T21:57:24.754Z,0
2022-08-18T22:02:52.963Z,0
2022-08-18T22:08:16.154Z,0
2022-08-18T22:13:41.983Z,0
2022-08-18T22:19:04.268Z,0
2022-08-18T22:24:34.408Z,0
2022-08-18T22:29:56.831Z,0
2022-08-18T22:35:22.144Z,0
2022-08-18T22:40:44.948Z,0
2022-08-18T22:46:07.582Z,0
2022-08-18T22:51:30.118Z,0
2022-08-18T22:56:54.214Z,0
2022-08-18T23:02:21.997Z,0
2022-08-18T23:07:44.796Z,0
2022-08-18T23:18:38.246Z,0
2022-08-18T23:24:07.122Z,0
2022-08-18T23:29:32.688Z,0
2022-08-18T23:34:55.256Z,0
2022-08-18T23:40:17.648Z,0
2022-08-18T23:45:45.837Z,0
2022-08-18T23:51:13.684Z,0
2022-08-18T23:56:36.335Z,0
